Time;durP1;ratioP1;P1;durP2;ratioP2;P2;SDS_P1;SDS_P2;PMS_P1;PMS_P2;Temp;Humidity;BMP_temperature;BMP_pressure;BME280_temperature;BME280_humidity;BME280_pressure;Samples;Min_cycle;Max_cycle;Signal;HPM_P1;HPM_P2
2022/06/27 00:01:32;;;;;;;7.55;3.75;;;;;;;;;;5012742;28;20121;-74
2022/06/27 00:03:58;;;;;;;5.32;3.50;;;;;;;;;;5012311;28;20046;-74
2022/06/27 00:06:24;;;;;;;9.63;4.00;;;;;;;;;;5012675;28;20117;-74
2022/06/27 00:08:50;;;;;;;6.13;3.42;;;;;;;;;;5012511;28;20480;-76
2022/06/27 00:11:18;;;;;;;7.47;3.67;;;;;;;;;;5014737;28;20044;-74
2022/06/27 00:13:45;;;;;;;8.32;3.70;;;;;;;;;;5012766;28;20097;-77
2022/06/27 00:16:11;;;;;;;6.88;3.58;;;;;;;;;;5012949;28;20060;-75
2022/06/27 00:18:37;;;;;;;9.50;3.58;;;;;;;;;;5012964;28;20531;-74
2022/06/27 00:21:03;;;;;;;6.68;3.95;;;;;;;;;;5012892;28;20030;-74
2022/06/27 00:23:30;;;;;;;7.63;4.13;;;;;;;;;;5012231;28;20022;-76
2022/06/27 00:25:56;;;;;;;5.65;3.40;;;;;;;;;;5012605;28;20493;-72
2022/06/27 00:28:21;;;;;;;6.07;3.83;;;;;;;;;;5012350;28;20104;-73
2022/06/27 00:30:47;;;;;;;8.80;3.88;;;;;;;;;;5012364;28;20050;-72
2022/06/27 00:33:13;;;;;;;7.22;3.70;;;;;;;;;;5013109;28;20026;-74
2022/06/27 00:35:39;;;;;;;6.30;3.67;;;;;;;;;;5012414;28;20540;-74
2022/06/27 00:38:05;;;;;;;5.18;3.40;;;;;;;;;;5012403;28;20465;-72
2022/06/27 00:40:31;;;;;;;5.50;3.70;;;;;;;;;;5011784;28;20046;-73
2022/06/27 00:42:57;;;;;;;7.10;3.90;;;;;;;;;;5010831;28;20032;-75
2022/06/27 00:45:23;;;;;;;7.40;4.10;;;;;;;;;;5012017;28;20042;-74
2022/06/27 00:47:50;;;;;;;7.57;3.85;;;;;;;;;;5011992;28;20026;-75
2022/06/27 00:50:16;;;;;;;6.18;3.92;;;;;;;;;;5011587;28;20095;-74
2022/06/27 00:52:42;;;;;;;6.35;3.70;;;;;;;;;;5011904;28;20054;-76
2022/06/27 00:55:09;;;;;;;9.00;4.05;;;;;;;;;;5011642;28;20034;-74
2022/06/27 00:57:36;;;;;;;7.40;3.78;;;;;;;;;;5011424;28;20079;-75
2022/06/27 01:00:03;;;;;;;10.43;4.55;;;;;;;;;;5011734;28;20432;-76
2022/06/27 01:02:29;;;;;;;7.07;4.03;;;;;;;;;;5010643;28;20119;-73
2022/06/27 01:04:55;;;;;;;7.40;3.90;;;;;;;;;;5010642;28;20469;-76
2022/06/27 01:07:21;;;;;;;9.43;4.28;;;;;;;;;;5010188;28;20084;-72
2022/06/27 01:09:47;;;;;;;9.63;3.75;;;;;;;;;;5011781;28;20080;-77
2022/06/27 01:12:13;;;;;;;7.70;4.00;;;;;;;;;;5010322;28;20361;-74
2022/06/27 01:14:40;;;;;;;7.75;4.10;;;;;;;;;;5011707;28;20034;-74
2022/06/27 01:17:06;;;;;;;6.05;3.83;;;;;;;;;;5011059;28;20044;-75
2022/06/27 01:19:32;;;;;;;6.13;3.90;;;;;;;;;;5009768;28;20034;-76
2022/06/27 01:21:58;;;;;;;7.03;4.43;;;;;;;;;;5011565;28;20518;-73
2022/06/27 01:24:26;;;;;;;8.38;4.10;;;;;;;;;;5014531;28;20034;-75
2022/06/27 01:26:52;;;;;;;9.88;4.20;;;;;;;;;;4997912;28;20530;-74
2022/06/27 01:29:20;;;;;;;7.97;4.15;;;;;;;;;;4997971;28;20065;-77
2022/06/27 01:31:47;;;;;;;5.80;4.30;;;;;;;;;;5014346;28;20080;-73
2022/06/27 01:34:14;;;;;;;7.03;4.65;;;;;;;;;;5014071;28;20034;-75
2022/06/27 01:36:42;;;;;;;8.60;4.50;;;;;;;;;;5013695;28;20033;-76
2022/06/27 01:39:21;;;;;;;8.82;4.97;;;;;;;;;;5013800;28;20022;-79
2022/06/27 01:41:49;;;;;;;15.80;5.85;;;;;;;;;;5015373;28;20026;-77
2022/06/27 01:44:16;;;;;;;9.63;5.47;;;;;;;;;;5014089;28;20049;-73
2022/06/27 01:46:48;;;;;;;9.30;4.90;;;;;;;;;;5013868;28;20412;-75
2022/06/27 01:49:16;;;;;;;8.07;5.22;;;;;;;;;;5013406;28;20125;-75
2022/06/27 01:51:43;;;;;;;7.43;4.90;;;;;;;;;;5013427;28;20022;-75
2022/06/27 01:54:14;;;;;;;9.77;4.13;;;;;;;;;;5013359;28;20133;-74
2022/06/27 01:56:42;;;;;;;8.50;4.82;;;;;;;;;;5013641;28;20409;-74
2022/06/27 01:59:09;;;;;;;6.93;4.72;;;;;;;;;;5013677;28;20032;-75
2022/06/27 02:01:35;;;;;;;8.10;4.53;;;;;;;;;;5013463;28;20120;-76
2022/06/27 02:04:02;;;;;;;8.00;4.43;;;;;;;;;;5013139;28;20045;-73
2022/06/27 02:06:30;;;;;;;8.55;4.43;;;;;;;;;;5011881;28;20073;-74
2022/06/27 02:08:57;;;;;;;6.20;4.18;;;;;;;;;;5013243;28;20033;-75
2022/06/27 02:11:25;;;;;;;7.78;4.28;;;;;;;;;;5014931;28;20109;-75
2022/06/27 02:13:54;;;;;;;8.95;4.68;;;;;;;;;;5013236;28;20038;-77
2022/06/27 02:16:21;;;;;;;8.68;4.55;;;;;;;;;;5014674;28;20113;-73
2022/06/27 02:18:48;;;;;;;8.20;4.55;;;;;;;;;;4999530;28;20042;-75
2022/06/27 02:21:21;;;;;;;13.45;4.90;;;;;;;;;;5012728;28;20033;-73
2022/06/27 02:23:49;;;;;;;11.98;5.22;;;;;;;;;;5015616;28;20582;-74
2022/06/27 02:26:20;;;;;;;9.65;5.45;;;;;;;;;;5014093;28;20481;-75
2022/06/27 02:28:51;;;;;;;13.25;5.65;;;;;;;;;;5012796;28;20515;-74
2022/06/27 02:31:18;;;;;;;12.07;6.38;;;;;;;;;;5014034;28;20272;-74
2022/06/27 02:33:46;;;;;;;12.25;6.35;;;;;;;;;;5012298;28;20476;-74
2022/06/27 02:36:16;;;;;;;13.27;7.13;;;;;;;;;;5014390;28;20423;-73
2022/06/27 02:38:44;;;;;;;11.25;7.32;;;;;;;;;;5012680;28;20030;-73
2022/06/27 02:41:13;;;;;;;14.38;6.30;;;;;;;;;;5014181;28;20036;-77
2022/06/27 02:43:44;;;;;;;26.48;7.75;;;;;;;;;;5013863;28;20034;-76
2022/06/27 02:46:10;;;;;;;19.13;6.95;;;;;;;;;;5012441;28;20041;-76
2022/06/27 02:48:37;;;;;;;15.10;7.47;;;;;;;;;;5012687;28;20124;-73
2022/06/27 02:51:09;;;;;;;13.52;7.45;;;;;;;;;;5012759;28;20038;-76
2022/06/27 02:53:45;;;;;;;10.50;7.15;;;;;;;;;;5012522;28;20030;-75
2022/06/27 02:56:29;;;;;;;12.25;8.00;;;;;;;;;;5011393;28;20153;-75
2022/06/27 02:59:13;;;;;;;13.68;7.53;;;;;;;;;;5011789;28;20484;-74
2022/06/27 03:01:42;;;;;;;15.80;7.15;;;;;;;;;;5012642;28;20034;-73
2022/06/27 03:04:08;;;;;;;10.10;6.75;;;;;;;;;;5012314;28;20061;-74
2022/06/27 03:06:34;;;;;;;14.30;8.05;;;;;;;;;;5011675;28;20129;-73
2022/06/27 03:09:00;;;;;;;11.90;6.90;;;;;;;;;;5012007;28;20112;-76
2022/06/27 03:11:26;;;;;;;15.98;7.60;;;;;;;;;;5012447;28;20038;-74
2022/06/27 03:13:54;;;;;;;18.55;7.65;;;;;;;;;;5013608;28;20029;-73
2022/06/27 03:16:22;;;;;;;11.88;7.20;;;;;;;;;;5012123;28;20121;-73
2022/06/27 03:18:51;;;;;;;14.15;7.57;;;;;;;;;;5010995;28;20113;-73
2022/06/27 03:21:35;;;;;;;22.98;9.50;;;;;;;;;;5013343;28;20084;-75
2022/06/27 03:24:04;;;;;;;18.85;8.30;;;;;;;;;;5011204;28;20104;-75
2022/06/27 03:26:30;;;;;;;15.82;8.60;;;;;;;;;;5013718;28;20049;-73
2022/06/27 03:28:56;;;;;;;14.30;7.38;;;;;;;;;;5013005;28;20056;-72
2022/06/27 03:31:22;;;;;;;11.15;6.43;;;;;;;;;;5012883;28;20054;-74
2022/06/27 03:33:50;;;;;;;15.32;7.25;;;;;;;;;;5026963;28;20030;-73
2022/06/27 03:36:43;;;;;;;10.90;5.70;;;;;;;;;;5012700;28;20049;-74
2022/06/27 03:39:13;;;;;;;10.13;6.90;;;;;;;;;;5011189;28;20113;-74
2022/06/27 03:41:39;;;;;;;16.17;6.55;;;;;;;;;;5011532;28;20033;-75
2022/06/27 03:44:08;;;;;;;15.48;6.45;;;;;;;;;;5010021;28;20422;-75
2022/06/27 03:46:38;;;;;;;13.05;6.82;;;;;;;;;;5011166;28;20033;-74
2022/06/27 03:51:56;;;;;;;14.73;6.47;;;;;;;;;;5010852;28;20034;-73
2022/06/27 03:54:22;;;;;;;17.88;7.35;;;;;;;;;;5011198;28;20121;-74
2022/06/27 03:56:49;;;;;;;12.90;6.28;;;;;;;;;;5011160;28;20473;-77
2022/06/27 03:59:16;;;;;;;10.23;6.07;;;;;;;;;;5010888;28;20076;-74
2022/06/27 04:01:42;;;;;;;12.65;6.13;;;;;;;;;;5010205;28;20034;-78
2022/06/27 04:04:09;;;;;;;11.77;5.93;;;;;;;;;;5010915;28;20129;-77
2022/06/27 04:06:35;;;;;;;11.77;6.60;;;;;;;;;;5010892;28;20037;-76
2022/06/27 04:09:02;;;;;;;19.67;6.70;;;;;;;;;;5010222;28;20030;-73
2022/06/27 04:11:29;;;;;;;13.38;6.60;;;;;;;;;;5010562;28;20517;-74
2022/06/27 04:13:57;;;;;;;14.93;6.70;;;;;;;;;;5011076;28;20477;-74
2022/06/27 04:16:42;;;;;;;10.63;6.00;;;;;;;;;;5014631;28;20076;-73
2022/06/27 04:19:26;;;;;;;12.77;6.18;;;;;;;;;;5012512;28;20104;-75
2022/06/27 04:22:11;;;;;;;20.27;6.43;;;;;;;;;;5012276;28;20052;-73
2022/06/27 04:25:01;;;;;;;9.48;5.78;;;;;;;;;;5010765;28;20048;-73
2022/06/27 04:27:48;;;;;;;11.45;4.60;;;;;;;;;;5010785;28;20500;-73
2022/06/27 04:30:18;;;;;;;13.90;5.05;;;;;;;;;;5010252;28;20084;-73
2022/06/27 04:32:45;;;;;;;10.63;4.72;;;;;;;;;;5009063;28;20092;-76
2022/06/27 04:35:12;;;;;;;7.05;4.50;;;;;;;;;;5010749;28;20042;-74
2022/06/27 04:37:41;;;;;;;7.90;4.40;;;;;;;;;;5010498;28;20026;-73
2022/06/27 04:40:28;;;;;;;14.32;5.22;;;;;;;;;;5010585;28;20125;-74
2022/06/27 04:42:56;;;;;;;10.57;4.47;;;;;;;;;;5010353;28;20030;-74
2022/06/27 04:45:23;;;;;;;7.50;4.18;;;;;;;;;;5009515;28;20024;-76
2022/06/27 04:47:56;;;;;;;9.30;3.95;;;;;;;;;;4989986;28;20030;-74
2022/06/27 04:50:23;;;;;;;7.82;4.03;;;;;;;;;;5009368;28;20040;-74
2022/06/27 04:52:49;;;;;;;10.30;4.38;;;;;;;;;;5010061;28;20033;-73
2022/06/27 04:55:17;;;;;;;5.75;3.97;;;;;;;;;;5009748;28;20034;-76
2022/06/27 04:57:45;;;;;;;7.07;3.80;;;;;;;;;;5010378;28;20022;-73
2022/06/27 05:00:13;;;;;;;8.77;4.10;;;;;;;;;;5010581;28;20029;-73
2022/06/27 05:02:58;;;;;;;8.60;4.28;;;;;;;;;;5002273;28;20053;-73
2022/06/27 05:05:25;;;;;;;7.88;4.43;;;;;;;;;;5009847;28;20061;-73
2022/06/27 05:07:51;;;;;;;9.02;4.97;;;;;;;;;;5008208;28;20042;-76
2022/06/27 05:10:18;;;;;;;9.15;4.57;;;;;;;;;;4999562;28;20049;-75
2022/06/27 05:12:44;;;;;;;13.23;4.88;;;;;;;;;;4991782;28;20381;-72
2022/06/27 05:15:10;;;;;;;6.75;4.13;;;;;;;;;;4989962;28;20035;-73
2022/06/27 05:17:36;;;;;;;9.05;3.88;;;;;;;;;;4997981;28;20541;-74
2022/06/27 05:20:02;;;;;;;12.00;4.82;;;;;;;;;;5009546;28;20057;-73
2022/06/27 05:22:30;;;;;;;11.60;4.65;;;;;;;;;;5009827;28;20033;-73
2022/06/27 05:24:57;;;;;;;15.00;5.13;;;;;;;;;;5009616;28;20038;-76
2022/06/27 05:27:23;;;;;;;12.95;5.30;;;;;;;;;;5009759;28;20396;-74
2022/06/27 05:29:50;;;;;;;11.70;4.65;;;;;;;;;;5010772;28;20030;-72
2022/06/27 05:32:18;;;;;;;11.15;5.45;;;;;;;;;;5007830;28;20463;-74
2022/06/27 05:34:44;;;;;;;10.43;4.63;;;;;;;;;;5009766;28;20038;-75
2022/06/27 05:37:10;;;;;;;9.82;4.38;;;;;;;;;;5008882;28;20026;-73
2022/06/27 05:39:36;;;;;;;7.47;4.50;;;;;;;;;;5009514;28;20034;-73
2022/06/27 05:42:03;;;;;;;9.85;4.85;;;;;;;;;;5011171;28;20026;-74
2022/06/27 05:44:30;;;;;;;13.18;4.40;;;;;;;;;;5009141;28;20469;-76
2022/06/27 05:46:57;;;;;;;10.90;4.32;;;;;;;;;;5010244;28;20033;-76
2022/06/27 05:50:02;;;;;;;9.80;4.50;;;;;;;;;;5014875;28;20084;-73
2022/06/27 05:52:29;;;;;;;6.40;4.30;;;;;;;;;;5011745;28;20061;-72
2022/06/27 05:54:56;;;;;;;7.80;3.92;;;;;;;;;;5010519;28;20032;-72
2022/06/27 05:57:24;;;;;;;6.50;3.70;;;;;;;;;;5010965;28;20076;-74
2022/06/27 05:59:52;;;;;;;8.82;4.32;;;;;;;;;;5010704;28;20028;-74
2022/06/27 06:02:18;;;;;;;10.55;4.13;;;;;;;;;;5010565;28;20460;-75
2022/06/27 06:04:45;;;;;;;7.72;4.07;;;;;;;;;;5010692;28;20092;-78
2022/06/27 06:07:13;;;;;;;9.85;4.30;;;;;;;;;;5010875;28;20436;-74
2022/06/27 06:09:39;;;;;;;9.82;3.80;;;;;;;;;;5024949;28;20576;-76
2022/06/27 06:12:08;;;;;;;13.23;4.88;;;;;;;;;;5016594;28;20069;-73
2022/06/27 06:14:36;;;;;;;8.02;4.13;;;;;;;;;;5015840;28;20049;-75
2022/06/27 06:17:04;;;;;;;8.70;3.92;;;;;;;;;;5014318;28;20096;-76
2022/06/27 06:19:31;;;;;;;6.93;4.05;;;;;;;;;;5014142;28;20031;-74
2022/06/27 06:22:00;;;;;;;6.78;4.50;;;;;;;;;;5013707;28;20038;-77
2022/06/27 06:24:27;;;;;;;9.60;4.57;;;;;;;;;;5015671;28;20385;-77
2022/06/27 06:26:53;;;;;;;9.68;4.45;;;;;;;;;;5015291;28;20490;-74
2022/06/27 06:29:21;;;;;;;9.68;3.63;;;;;;;;;;5013768;28;20030;-74
2022/06/27 06:31:54;;;;;;;6.22;4.10;;;;;;;;;;5014090;28;20091;-75
2022/06/27 06:34:21;;;;;;;7.03;3.92;;;;;;;;;;5013972;28;20433;-74
2022/06/27 06:36:47;;;;;;;8.57;4.18;;;;;;;;;;5013889;28;20026;-74
2022/06/27 06:39:13;;;;;;;7.82;4.90;;;;;;;;;;5013559;28;20056;-78
2022/06/27 06:41:39;;;;;;;6.43;3.92;;;;;;;;;;5014100;28;20099;-72
2022/06/27 06:44:06;;;;;;;11.90;4.97;;;;;;;;;;5013693;28;20095;-73
2022/06/27 06:47:01;;;;;;;11.60;4.88;;;;;;;;;;4995427;28;20045;-75
2022/06/27 06:49:39;;;;;;;8.15;3.80;;;;;;;;;;5013366;28;20132;-74
2022/06/27 06:52:05;;;;;;;8.05;3.65;;;;;;;;;;5015177;28;20362;-75
2022/06/27 06:54:31;;;;;;;7.93;3.88;;;;;;;;;;5013818;28;20029;-74
2022/06/27 06:56:58;;;;;;;7.28;3.90;;;;;;;;;;5014885;28;20436;-75
2022/06/27 06:59:24;;;;;;;7.32;3.63;;;;;;;;;;5014827;28;20018;-74
2022/06/27 07:01:50;;;;;;;4.25;3.13;;;;;;;;;;5015008;28;20076;-74
2022/06/27 07:04:19;;;;;;;7.63;3.35;;;;;;;;;;5014685;28;20124;-76
2022/06/27 07:06:45;;;;;;;11.70;3.80;;;;;;;;;;5014767;28;20038;-74
2022/06/27 07:09:11;;;;;;;8.15;3.42;;;;;;;;;;5014700;28;20318;-74
2022/06/27 07:11:37;;;;;;;7.40;3.50;;;;;;;;;;5014328;28;20431;-74
2022/06/27 07:14:04;;;;;;;9.70;3.60;;;;;;;;;;5014280;28;20109;-74
2022/06/27 07:16:31;;;;;;;7.82;3.53;;;;;;;;;;5014410;28;20469;-73
2022/06/27 07:18:58;;;;;;;8.55;3.42;;;;;;;;;;5014441;28;20025;-73
2022/06/27 07:21:26;;;;;;;4.30;3.40;;;;;;;;;;5014548;28;20042;-73
2022/06/27 07:23:52;;;;;;;9.20;4.25;;;;;;;;;;5014616;28;20026;-72
2022/06/27 07:26:19;;;;;;;10.68;5.30;;;;;;;;;;5013663;28;20125;-73
2022/06/27 07:28:47;;;;;;;6.20;3.47;;;;;;;;;;5013752;28;20109;-75
2022/06/27 07:31:13;;;;;;;5.30;3.10;;;;;;;;;;5013914;28;20033;-75
2022/06/27 07:33:41;;;;;;;6.57;4.00;;;;;;;;;;5012557;28;20113;-75
2022/06/27 07:36:14;;;;;;;8.45;4.18;;;;;;;;;;5014573;28;20030;-75
2022/06/27 07:38:49;;;;;;;4.88;3.30;;;;;;;;;;5013587;28;20132;-78
2022/06/27 07:41:20;;;;;;;10.77;4.13;;;;;;;;;;5013810;28;20520;-76
2022/06/27 07:43:48;;;;;;;10.32;3.72;;;;;;;;;;5013951;28;20570;-76
2022/06/27 07:46:15;;;;;;;8.48;3.70;;;;;;;;;;5013704;28;20033;-75
2022/06/27 07:48:41;;;;;;;6.15;3.30;;;;;;;;;;5013735;28;20092;-76
2022/06/27 07:51:07;;;;;;;10.40;3.58;;;;;;;;;;5014043;28;20029;-75
2022/06/27 07:53:35;;;;;;;6.97;3.35;;;;;;;;;;5013813;28;20473;-74
2022/06/27 07:56:06;;;;;;;7.78;3.42;;;;;;;;;;5014145;28;20127;-74
2022/06/27 07:58:35;;;;;;;7.45;3.20;;;;;;;;;;5013834;28;20069;-75
2022/06/27 08:01:06;;;;;;;8.52;4.07;;;;;;;;;;5017047;28;20112;-75
2022/06/27 08:03:44;;;;;;;5.65;3.35;;;;;;;;;;5013766;28;20045;-76
2022/06/27 08:06:27;;;;;;;5.70;3.40;;;;;;;;;;5012708;28;20500;-76
2022/06/27 08:08:57;;;;;;;;;;;;;;;;;;5013850;28;20041;-74
2022/06/27 08:11:29;;;;;;;5.72;3.33;;;;;;;;;;5013830;28;19913;-74
2022/06/27 08:13:58;;;;;;;6.97;3.35;;;;;;;;;;5013704;28;20040;-74
2022/06/27 08:16:26;;;;;;;7.07;3.40;;;;;;;;;;5012125;28;20088;-76
2022/06/27 08:18:52;;;;;;;7.13;3.38;;;;;;;;;;5012056;28;20022;-74
2022/06/27 08:21:21;;;;;;;5.72;3.05;;;;;;;;;;5013272;28;20030;-75
2022/06/27 08:23:48;;;;;;;5.45;3.45;;;;;;;;;;5011820;28;20033;-74
2022/06/27 08:26:14;;;;;;;8.50;3.10;;;;;;;;;;5012098;28;20096;-74
2022/06/27 08:28:42;;;;;;;4.38;2.90;;;;;;;;;;5012991;28;20431;-74
2022/06/27 08:31:12;;;;;;;9.20;3.33;;;;;;;;;;5012927;28;20365;-74
2022/06/27 08:33:39;;;;;;;9.18;3.70;;;;;;;;;;5012890;28;20487;-74
2022/06/27 08:36:06;;;;;;;7.18;3.38;;;;;;;;;;5013190;28;20034;-74
2022/06/27 08:38:39;;;;;;;9.32;3.40;;;;;;;;;;5013347;28;20364;-73
2022/06/27 08:41:07;;;;;;;5.38;3.13;;;;;;;;;;5012765;28;20057;-73
2022/06/27 08:43:34;;;;;;;9.60;3.70;;;;;;;;;;5012728;28;20468;-73
2022/06/27 08:46:00;;;;;;;8.23;3.03;;;;;;;;;;5012828;28;20556;-74
2022/06/27 08:48:28;;;;;;;6.43;3.03;;;;;;;;;;5013040;28;20105;-76
2022/06/27 08:50:57;;;;;;;8.00;3.35;;;;;;;;;;5012941;28;20030;-75
2022/06/27 08:53:25;;;;;;;7.00;3.20;;;;;;;;;;5012541;28;20072;-74
2022/06/27 08:55:51;;;;;;;5.95;3.08;;;;;;;;;;5012388;28;20065;-73
2022/06/27 08:58:17;;;;;;;5.88;3.30;;;;;;;;;;5012388;28;20026;-73
2022/06/27 09:00:47;;;;;;;6.22;3.05;;;;;;;;;;5012684;28;20396;-74
2022/06/27 09:03:17;;;;;;;5.95;3.63;;;;;;;;;;5012234;28;20095;-71
2022/06/27 09:05:53;;;;;;;9.93;3.40;;;;;;;;;;5012538;28;20034;-76
2022/06/27 09:08:20;;;;;;;9.55;2.90;;;;;;;;;;5012545;28;20030;-74
2022/06/27 09:10:46;;;;;;;5.90;2.67;;;;;;;;;;5012322;28;20102;-73
2022/06/27 09:13:15;;;;;;;3.65;2.47;;;;;;;;;;5012553;28;20076;-76
2022/06/27 09:15:53;;;;;;;6.43;3.10;;;;;;;;;;5012133;28;20021;-76
2022/06/27 09:18:33;;;;;;;4.82;2.90;;;;;;;;;;5012424;28;20042;-77
2022/06/27 09:21:01;;;;;;;5.22;2.80;;;;;;;;;;5012431;28;20038;-73
2022/06/27 09:23:31;;;;;;;5.65;2.80;;;;;;;;;;5012314;28;20092;-75
2022/06/27 09:26:06;;;;;;;4.88;2.42;;;;;;;;;;5012817;28;20053;-74
2022/06/27 09:28:50;;;;;;;6.13;2.53;;;;;;;;;;5012999;28;20049;-75
2022/06/27 09:31:28;;;;;;;3.50;2.47;;;;;;;;;;5012632;28;20092;-77
2022/06/27 09:34:26;;;;;;;4.65;2.50;;;;;;;;;;5012652;28;20052;-75
2022/06/27 09:36:54;;;;;;;5.75;2.90;;;;;;;;;;5012173;28;20030;-74
2022/06/27 09:39:33;;;;;;;6.72;2.70;;;;;;;;;;5012140;28;20080;-72
2022/06/27 09:42:03;;;;;;;6.68;3.25;;;;;;;;;;5012527;28;20038;-77
2022/06/27 09:44:35;;;;;;;8.18;2.85;;;;;;;;;;5015924;28;20026;-77
2022/06/27 09:47:37;;;;;;;6.60;3.28;;;;;;;;;;5015985;28;20092;-76
2022/06/27 09:50:03;;;;;;;4.55;2.80;;;;;;;;;;5015631;28;20181;-75
2022/06/27 09:52:29;;;;;;;6.20;3.15;;;;;;;;;;5016225;28;20022;-75
2022/06/27 09:54:55;;;;;;;4.68;2.83;;;;;;;;;;5016275;28;20121;-75
2022/06/27 09:57:22;;;;;;;5.47;2.88;;;;;;;;;;5015958;28;20045;-74
2022/06/27 09:59:50;;;;;;;3.83;2.55;;;;;;;;;;5016227;28;20038;-75
2022/06/27 10:02:19;;;;;;;5.65;2.70;;;;;;;;;;5015689;28;20046;-73
2022/06/27 10:04:47;;;;;;;8.18;3.03;;;;;;;;;;5016003;28;20121;-72
2022/06/27 10:07:15;;;;;;;5.45;2.80;;;;;;;;;;5015599;28;20044;-73
2022/06/27 10:09:42;;;;;;;6.28;3.10;;;;;;;;;;5015733;28;20042;-73
2022/06/27 10:12:23;;;;;;;8.35;3.00;;;;;;;;;;5015865;28;20441;-74
2022/06/27 10:15:08;;;;;;;5.45;2.92;;;;;;;;;;5015442;28;20477;-73
2022/06/27 10:17:37;;;;;;;9.50;3.63;;;;;;;;;;5015222;28;20038;-74
2022/06/27 10:20:20;;;;;;;4.90;2.80;;;;;;;;;;5015373;28;20030;-74
2022/06/27 10:23:11;;;;;;;5.72;3.08;;;;;;;;;;5015664;28;20038;-73
2022/06/27 10:25:42;;;;;;;8.45;2.67;;;;;;;;;;5015417;28;20037;-74
2022/06/27 10:28:14;;;;;;;6.32;3.00;;;;;;;;;;5015400;28;20440;-78
2022/06/27 10:30:45;;;;;;;5.50;2.67;;;;;;;;;;5015088;28;20038;-76
2022/06/27 10:33:26;;;;;;;5.32;3.35;;;;;;;;;;5015414;28;20346;-73
2022/06/27 10:35:58;;;;;;;5.47;3.10;;;;;;;;;;5015067;28;20038;-74
2022/06/27 10:38:32;;;;;;;7.50;3.10;;;;;;;;;;5014953;28;20030;-73
2022/06/27 10:41:02;;;;;;;7.72;3.10;;;;;;;;;;5015070;28;20069;-73
2022/06/27 10:43:48;;;;;;;5.18;3.03;;;;;;;;;;5015120;28;20068;-75
2022/06/27 10:46:17;;;;;;;7.68;3.17;;;;;;;;;;5015056;28;20053;-76
2022/06/27 10:48:45;;;;;;;5.47;2.90;;;;;;;;;;5015367;28;20026;-73
2022/06/27 10:51:30;;;;;;;5.45;3.10;;;;;;;;;;5015022;28;20077;-74
2022/06/27 10:53:59;;;;;;;4.88;3.03;;;;;;;;;;5014744;28;20109;-72
2022/06/27 10:56:31;;;;;;;6.30;3.40;;;;;;;;;;5015081;28;20022;-73
2022/06/27 10:58:58;;;;;;;;;;;;;;;;;;5015362;28;20121;-71
2022/06/27 11:01:24;;;;;;;6.85;2.75;;;;;;;;;;5014545;28;19921;-76
2022/06/27 11:03:51;;;;;;;6.60;3.10;;;;;;;;;;5014534;28;20053;-76
2022/06/27 11:06:17;;;;;;;7.50;3.50;;;;;;;;;;5014600;28;20061;-74
2022/06/27 11:08:52;;;;;;;5.65;3.10;;;;;;;;;;5014931;28;20057;-76
2022/06/27 11:11:21;;;;;;;7.05;3.53;;;;;;;;;;5014792;28;20040;-76
2022/06/27 11:13:55;;;;;;;9.07;3.38;;;;;;;;;;5014725;28;20235;-75
2022/06/27 11:16:22;;;;;;;6.32;3.25;;;;;;;;;;5014808;28;20033;-75
2022/06/27 11:18:51;;;;;;;6.35;3.03;;;;;;;;;;5014938;28;20704;-76
2022/06/27 11:21:22;;;;;;;6.13;3.05;;;;;;;;;;5014311;28;20034;-73
2022/06/27 11:23:51;;;;;;;4.25;2.88;;;;;;;;;;5013265;28;20034;-74
2022/06/27 11:26:22;;;;;;;7.80;2.85;;;;;;;;;;5014211;28;20026;-73
2022/06/27 11:34:18;;;;;;;8.80;3.50;;;;;;;;;;5013444;28;20457;-73
2022/06/27 11:36:45;;;;;;;5.63;3.10;;;;;;;;;;5010927;28;20026;-76
2022/06/27 11:39:11;;;;;;;6.28;3.60;;;;;;;;;;5001767;28;20143;-78
2022/06/27 11:41:40;;;;;;;5.63;2.90;;;;;;;;;;5002204;28;20384;-77
2022/06/27 11:44:08;;;;;;;10.10;3.25;;;;;;;;;;5013563;28;20033;-77
2022/06/27 11:46:34;;;;;;;6.63;2.80;;;;;;;;;;5011955;28;20358;-76
2022/06/27 11:49:11;;;;;;;6.38;2.70;;;;;;;;;;5013594;28;20084;-75
2022/06/27 11:51:43;;;;;;;4.72;2.88;;;;;;;;;;5007945;28;20072;-76
2022/06/27 11:54:20;;;;;;;4.60;3.00;;;;;;;;;;5001055;28;20026;-74
2022/06/27 11:56:49;;;;;;;6.32;3.20;;;;;;;;;;5004962;28;20045;-76
2022/06/27 11:59:17;;;;;;;6.68;2.70;;;;;;;;;;5012519;28;20034;-75
2022/06/27 12:02:01;;;;;;;6.65;3.25;;;;;;;;;;5011782;28;20029;-77
2022/06/27 12:04:32;;;;;;;5.00;2.55;;;;;;;;;;5006555;28;20050;-76
2022/06/27 12:07:09;;;;;;;6.30;3.30;;;;;;;;;;5004880;28;20133;-75
2022/06/27 12:09:49;;;;;;;5.22;3.00;;;;;;;;;;5002179;28;20389;-76
2022/06/27 12:12:33;;;;;;;10.63;3.00;;;;;;;;;;5005612;28;20033;-76
2022/06/27 12:14:59;;;;;;;5.30;3.00;;;;;;;;;;4996015;28;20038;-75
2022/06/27 12:17:38;;;;;;;5.45;2.85;;;;;;;;;;4993084;28;20350;-76
2022/06/27 12:20:08;;;;;;;7.47;2.90;;;;;;;;;;5008746;28;20099;-76
2022/06/27 12:22:33;;;;;;;5.65;2.85;;;;;;;;;;5013227;28;20049;-75
2022/06/27 12:24:59;;;;;;;6.57;3.13;;;;;;;;;;5012839;28;20112;-76
2022/06/27 12:27:25;;;;;;;4.13;3.28;;;;;;;;;;5012331;28;20095;-78
2022/06/27 12:29:51;;;;;;;4.03;2.47;;;;;;;;;;5011364;28;20026;-76
2022/06/27 12:32:16;;;;;;;4.35;2.80;;;;;;;;;;5002972;28;20037;-76
2022/06/27 12:34:42;;;;;;;5.53;2.78;;;;;;;;;;5012230;28;20029;-77
2022/06/27 12:37:08;;;;;;;6.10;2.90;;;;;;;;;;5012379;28;20087;-75
2022/06/27 12:39:34;;;;;;;3.38;2.70;;;;;;;;;;5012524;28;20468;-76
2022/06/27 12:42:00;;;;;;;3.85;2.80;;;;;;;;;;5012647;28;20504;-76
2022/06/27 12:44:26;;;;;;;6.80;2.90;;;;;;;;;;5011014;28;20022;-77
2022/06/27 12:46:52;;;;;;;4.60;3.13;;;;;;;;;;5009265;28;20388;-77
2022/06/27 12:49:17;;;;;;;4.80;3.00;;;;;;;;;;5012636;28;20030;-76
2022/06/27 12:51:43;;;;;;;5.05;2.97;;;;;;;;;;5013232;28;20515;-78
2022/06/27 12:54:09;;;;;;;5.75;3.00;;;;;;;;;;5004097;28;20022;-78
2022/06/27 12:56:35;;;;;;;5.45;2.80;;;;;;;;;;5002575;28;20048;-78
2022/06/27 12:59:01;;;;;;;5.57;3.05;;;;;;;;;;5009641;28;20080;-77
2022/06/27 13:01:26;;;;;;;4.65;2.92;;;;;;;;;;5004718;28;20576;-77
2022/06/27 13:03:52;;;;;;;8.75;3.00;;;;;;;;;;5012440;28;20050;-77
2022/06/27 13:06:18;;;;;;;4.03;3.05;;;;;;;;;;5012503;28;20052;-76
2022/06/27 13:08:44;;;;;;;4.93;3.10;;;;;;;;;;5008287;28;20034;-76
2022/06/27 13:11:10;;;;;;;5.68;2.80;;;;;;;;;;5011467;28;20061;-77
2022/06/27 13:13:37;;;;;;;5.97;3.30;;;;;;;;;;5011862;28;20026;-74
2022/06/27 13:16:04;;;;;;;4.75;2.83;;;;;;;;;;5011977;28;20547;-77
2022/06/27 13:18:30;;;;;;;5.05;3.28;;;;;;;;;;5010685;28;20023;-76
2022/06/27 13:20:56;;;;;;;5.80;3.00;;;;;;;;;;5012144;28;20057;-78
2022/06/27 13:23:22;;;;;;;4.30;3.05;;;;;;;;;;5011513;28;20022;-76
2022/06/27 13:25:48;;;;;;;4.15;2.92;;;;;;;;;;5012121;28;20030;-76
2022/06/27 13:28:14;;;;;;;5.65;3.10;;;;;;;;;;5010983;28;20026;-77
2022/06/27 13:30:40;;;;;;;3.08;2.67;;;;;;;;;;5012086;28;20029;-76
2022/06/27 13:33:06;;;;;;;4.63;2.80;;;;;;;;;;5012404;28;20033;-75
2022/06/27 13:35:32;;;;;;;6.72;3.03;;;;;;;;;;5011938;28;20033;-76
2022/06/27 13:38:00;;;;;;;3.72;2.50;;;;;;;;;;5012164;28;20026;-76
2022/06/27 13:40:27;;;;;;;6.60;3.05;;;;;;;;;;5010809;28;20418;-76
2022/06/27 13:42:53;;;;;;;6.30;2.85;;;;;;;;;;5012017;28;20020;-77
2022/06/27 13:45:19;;;;;;;4.60;2.80;;;;;;;;;;5012020;28;20454;-77
2022/06/27 13:47:45;;;;;;;5.60;2.70;;;;;;;;;;5009842;28;20101;-77
2022/06/27 13:50:11;;;;;;;3.75;2.42;;;;;;;;;;5019521;28;20052;-76
2022/06/27 13:52:37;;;;;;;4.88;2.95;;;;;;;;;;5030420;28;20067;-77
2022/06/27 13:55:04;;;;;;;4.22;2.67;;;;;;;;;;5022929;28;20033;-76
2022/06/27 13:57:29;;;;;;;6.18;2.80;;;;;;;;;;5012090;28;20109;-76
2022/06/27 13:59:56;;;;;;;5.15;3.03;;;;;;;;;;5012162;28;20112;-77
2022/06/27 14:02:22;;;;;;;3.38;2.60;;;;;;;;;;5012302;28;20029;-77
2022/06/27 14:04:48;;;;;;;3.28;2.45;;;;;;;;;;5011630;28;20037;-76
2022/06/27 14:09:58;;;;;;;6.28;2.67;;;;;;;;;;5012229;28;20042;-76
2022/06/27 14:12:24;;;;;;;7.88;2.67;;;;;;;;;;5009742;28;20111;-76
2022/06/27 14:14:50;;;;;;;4.32;2.60;;;;;;;;;;5010360;28;20481;-77
2022/06/27 14:17:16;;;;;;;4.82;2.60;;;;;;;;;;5011400;28;20037;-77
2022/06/27 14:19:42;;;;;;;5.57;2.50;;;;;;;;;;5012258;28;20084;-76
2022/06/27 14:22:08;;;;;;;4.85;2.53;;;;;;;;;;5011267;28;20381;-76
2022/06/27 14:24:34;;;;;;;6.82;2.85;;;;;;;;;;5011319;28;20037;-75
2022/06/27 14:27:00;;;;;;;4.53;2.72;;;;;;;;;;5008143;28;20034;-75
2022/06/27 14:29:26;;;;;;;4.15;2.53;;;;;;;;;;5002764;28;20046;-76
2022/06/27 14:31:52;;;;;;;3.38;2.47;;;;;;;;;;4996381;28;20492;-77
2022/06/27 14:34:18;;;;;;;3.47;2.22;;;;;;;;;;4996332;28;20038;-77
2022/06/27 14:36:47;;;;;;;4.72;2.90;;;;;;;;;;5010613;28;20026;-77
2022/06/27 14:39:13;;;;;;;5.32;2.58;;;;;;;;;;5012827;28;20034;-77
2022/06/27 14:41:41;;;;;;;4.15;2.80;;;;;;;;;;5006517;28;20030;-76
2022/06/27 14:44:10;;;;;;;3.63;2.53;;;;;;;;;;5005119;28;20494;-76
2022/06/27 14:46:37;;;;;;;4.20;2.58;;;;;;;;;;5019005;28;20067;-75
2022/06/27 14:49:03;;;;;;;5.40;2.80;;;;;;;;;;5015381;28;20361;-77
2022/06/27 14:51:31;;;;;;;6.43;2.83;;;;;;;;;;5015347;28;20337;-77
2022/06/27 14:53:58;;;;;;;3.50;2.65;;;;;;;;;;5015448;28;20428;-79
2022/06/27 14:56:24;;;;;;;4.38;2.80;;;;;;;;;;5015220;28;20057;-77
2022/06/27 14:58:50;;;;;;;4.35;2.65;;;;;;;;;;5014863;28;20117;-79
2022/06/27 15:01:16;;;;;;;8.68;2.95;;;;;;;;;;5012189;28;20097;-78
2022/06/27 15:03:42;;;;;;;3.05;2.70;;;;;;;;;;5012978;28;20073;-78